sensor_id;sensor_type;location;lat;lon;timestamp;pressure;altitude;pressure_sealevel;temperature;humidity
27840;BME280;15207;42.182;24.308;2023-05-10T00:15:33;99670.84;;;9.78;100.00
27840;BME280;15207;42.182;24.308;2023-05-10T00:18:00;99655.31;;;9.84;100.00
27840;BME280;15207;42.182;24.308;2023-05-10T00:20:25;99667.09;;;9.81;100.00
27840;BME280;15207;42.182;24.308;2023-05-10T00:22:51;99667.72;;;9.85;100.00
27840;BME280;15207;42.182;24.308;2023-05-10T00:25:17;99668.78;;;9.95;100.00
27840;BME280;15207;42.182;24.308;2023-05-10T00:27:43;99668.50;;;9.87;100.00
27840;BME280;15207;42.182;24.308;2023-05-10T00:30:09;99667.53;;;9.88;100.00
27840;BME280;15207;42.182;24.308;2023-05-10T00:32:34;99676.50;;;9.74;100.00
27840;BME280;15207;42.182;24.308;2023-05-10T00:35:00;99678.97;;;9.77;100.00
27840;BME280;15207;42.182;24.308;2023-05-10T00:37:26;99678.66;;;9.82;100.00
27840;BME280;15207;42.182;24.308;2023-05-10T00:39:51;99679.31;;;9.85;100.00
27840;BME280;15207;42.182;24.308;2023-05-10T00:42:16;99683.25;;;9.79;100.00
27840;BME280;15207;42.182;24.308;2023-05-10T00:44:42;99679.50;;;9.82;100.00
27840;BME280;15207;42.182;24.308;2023-05-10T00:47:08;99673.50;;;9.91;100.00
27840;BME280;15207;42.182;24.308;2023-05-10T00:49:34;99674.78;;;9.86;100.00
27840;BME280;15207;42.182;24.308;2023-05-10T00:52:01;99672.78;;;9.89;100.00
27840;BME280;15207;42.182;24.308;2023-05-10T00:54:27;99668.56;;;10.11;100.00
27840;BME280;15207;42.182;24.308;2023-05-10T00:56:53;99673.41;;;10.06;100.00
27840;BME280;15207;42.182;24.308;2023-05-10T00:59:19;99674.53;;;10.15;100.00
27840;BME280;15207;42.182;24.308;2023-05-10T01:01:45;99678.22;;;10.01;100.00
27840;BME280;15207;42.182;24.308;2023-05-10T01:04:14;99678.66;;;9.95;100.00
27840;BME280;15207;42.182;24.308;2023-05-10T01:06:41;99683.44;;;10.15;100.00
27840;BME280;15207;42.182;24.308;2023-05-10T01:09:07;99683.34;;;10.17;100.00
27840;BME280;15207;42.182;24.308;2023-05-10T01:11:35;99677.34;;;10.00;100.00
27840;BME280;15207;42.182;24.308;2023-05-10T01:14:01;99687.31;;;10.11;100.00
27840;BME280;15207;42.182;24.308;2023-05-10T01:16:29;99684.28;;;10.16;100.00
27840;BME280;15207;42.182;24.308;2023-05-10T01:18:56;99686.44;;;10.11;100.00
27840;BME280;15207;42.182;24.308;2023-05-10T01:37:31;99691.06;;;9.96;100.00
27840;BME280;15207;42.182;24.308;2023-05-10T01:40:03;99690.00;;;9.98;100.00
27840;BME280;15207;42.182;24.308;2023-05-10T01:42:42;99683.66;;;9.99;100.00
27840;BME280;15207;42.182;24.308;2023-05-10T01:45:22;99691.06;;;9.96;100.00
27840;BME280;15207;42.182;24.308;2023-05-10T01:47:58;99687.75;;;10.05;100.00
27840;BME280;15207;42.182;24.308;2023-05-10T01:50:29;99688.59;;;9.92;100.00
27840;BME280;15207;42.182;24.308;2023-05-10T01:52:58;99693.81;;;10.07;100.00
27840;BME280;15207;42.182;24.308;2023-05-10T01:55:30;99694.47;;;10.11;100.00
27840;BME280;15207;42.182;24.308;2023-05-10T01:58:03;99693.53;;;10.12;100.00
27840;BME280;15207;42.182;24.308;2023-05-10T02:00:31;99693.63;;;10.10;100.00
27840;BME280;15207;42.182;24.308;2023-05-10T02:02:57;99696.06;;;10.13;100.00
27840;BME280;15207;42.182;24.308;2023-05-10T02:05:24;99695.13;;;10.14;100.00
27840;BME280;15207;42.182;24.308;2023-05-10T02:07:51;99686.56;;;10.09;100.00
27840;BME280;15207;42.182;24.308;2023-05-10T02:10:18;99702.06;;;10.17;100.00
27840;BME280;15207;42.182;24.308;2023-05-10T02:12:46;99708.72;;;10.11;100.00
27840;BME280;15207;42.182;24.308;2023-05-10T02:15:16;99710.88;;;9.80;100.00
27840;BME280;15207;42.182;24.308;2023-05-10T02:17:45;99698.88;;;9.86;100.00
27840;BME280;15207;42.182;24.308;2023-05-10T02:20:12;99704.44;;;9.83;100.00
27840;BME280;15207;42.182;24.308;2023-05-10T02:22:40;99708.72;;;9.72;100.00
27840;BME280;15207;42.182;24.308;2023-05-10T02:25:08;99704.44;;;9.57;100.00
27840;BME280;15207;42.182;24.308;2023-05-10T02:27:36;99702.50;;;9.72;100.00
27840;BME280;15207;42.182;24.308;2023-05-10T02:30:02;99705.63;;;9.65;100.00
27840;BME280;15207;42.182;24.308;2023-05-10T02:32:30;99702.16;;;9.63;100.00
27840;BME280;15207;42.182;24.308;2023-05-10T02:34:57;99699.72;;;9.47;100.00
27840;BME280;15207;42.182;24.308;2023-05-10T02:37:25;99691.59;;;9.49;100.00
27840;BME280;15207;42.182;24.308;2023-05-10T02:39:51;99700.44;;;9.49;100.00
27840;BME280;15207;42.182;24.308;2023-05-10T02:42:25;99705.28;;;9.57;100.00
27840;BME280;15207;42.182;24.308;2023-05-10T02:44:54;99700.56;;;9.48;100.00
27840;BME280;15207;42.182;24.308;2023-05-10T02:47:21;99697.97;;;9.33;100.00
27840;BME280;15207;42.182;24.308;2023-05-10T02:49:47;99691.69;;;9.47;100.00
27840;BME280;15207;42.182;24.308;2023-05-10T02:52:16;99702.03;;;9.39;100.00
27840;BME280;15207;42.182;24.308;2023-05-10T02:54:46;99699.91;;;9.44;100.00
27840;BME280;15207;42.182;24.308;2023-05-10T02:57:16;99696.28;;;9.45;100.00
27840;BME280;15207;42.182;24.308;2023-05-10T02:59:45;99698.31;;;9.42;100.00
27840;BME280;15207;42.182;24.308;2023-05-10T03:02:14;99703.66;;;9.42;100.00
27840;BME280;15207;42.182;24.308;2023-05-10T03:04:40;99701.50;;;9.34;100.00
27840;BME280;15207;42.182;24.308;2023-05-10T03:07:06;99697.63;;;9.25;100.00
27840;BME280;15207;42.182;24.308;2023-05-10T03:09:33;99694.13;;;9.37;100.00
27840;BME280;15207;42.182;24.308;2023-05-10T03:12:23;99699.03;;;9.44;100.00
27840;BME280;15207;42.182;24.308;2023-05-10T03:15:22;99702.78;;;9.41;100.00
27840;BME280;15207;42.182;24.308;2023-05-10T03:18:19;99703.66;;;9.42;100.00
27840;BME280;15207;42.182;24.308;2023-05-10T03:20:51;99704.06;;;9.35;100.00
27840;BME280;15207;42.182;24.308;2023-05-10T03:23:28;99698.75;;;9.48;100.00
27840;BME280;15207;42.182;24.308;2023-05-10T03:25:56;99696.50;;;9.55;100.00
27840;BME280;15207;42.182;24.308;2023-05-10T03:28:24;99709.19;;;9.38;100.00
27840;BME280;15207;42.182;24.308;2023-05-10T03:30:53;99699.72;;;9.47;100.00
27840;BME280;15207;42.182;24.308;2023-05-10T03:33:20;99698.09;;;9.32;100.00
27840;BME280;15207;42.182;24.308;2023-05-10T03:35:45;99709.75;;;9.44;100.00
27840;BME280;15207;42.182;24.308;2023-05-10T03:38:14;99711.22;;;9.35;100.00
27840;BME280;15207;42.182;24.308;2023-05-10T03:40:39;99716.38;;;9.38;100.00
27840;BME280;15207;42.182;24.308;2023-05-10T03:43:05;99721.31;;;9.57;100.00
27840;BME280;15207;42.182;24.308;2023-05-10T03:45:30;99717.13;;;9.53;100.00
27840;BME280;15207;42.182;24.308;2023-05-10T03:47:56;99723.91;;;9.72;100.00
27840;BME280;15207;42.182;24.308;2023-05-10T03:50:24;99718.34;;;9.62;100.00
27840;BME280;15207;42.182;24.308;2023-05-10T03:52:50;99723.69;;;9.62;100.00
27840;BME280;15207;42.182;24.308;2023-05-10T03:55:16;99722.41;;;9.81;100.00
27840;BME280;15207;42.182;24.308;2023-05-10T03:57:42;99718.47;;;9.86;100.00
27840;BME280;15207;42.182;24.308;2023-05-10T04:00:08;99720.59;;;9.94;100.00
27840;BME280;15207;42.182;24.308;2023-05-10T04:02:34;99724.13;;;9.95;100.00
27840;BME280;15207;42.182;24.308;2023-05-10T04:05:01;99724.88;;;9.97;100.00
27840;BME280;15207;42.182;24.308;2023-05-10T04:07:27;99725.50;;;10.00;100.00
27840;BME280;15207;42.182;24.308;2023-05-10T04:09:53;99735.25;;;9.88;100.00
27840;BME280;15207;42.182;24.308;2023-05-10T04:12:19;99723.47;;;9.78;100.00
27840;BME280;15207;42.182;24.308;2023-05-10T04:14:45;99729.78;;;9.77;100.00
27840;BME280;15207;42.182;24.308;2023-05-10T04:17:10;99732.38;;;9.78;100.00
27840;BME280;15207;42.182;24.308;2023-05-10T04:19:36;99731.41;;;9.79;100.00
27840;BME280;15207;42.182;24.308;2023-05-10T04:22:02;99733.34;;;9.77;100.00
27840;BME280;15207;42.182;24.308;2023-05-10T04:24:28;99734.19;;;9.78;100.00
27840;BME280;15207;42.182;24.308;2023-05-10T04:26:54;99732.91;;;9.84;100.00
27840;BME280;15207;42.182;24.308;2023-05-10T04:29:20;99732.91;;;9.71;100.00
27840;BME280;15207;42.182;24.308;2023-05-10T04:31:46;99739.31;;;9.68;100.00
27840;BME280;15207;42.182;24.308;2023-05-10T04:34:12;99737.16;;;9.60;100.00
27840;BME280;15207;42.182;24.308;2023-05-10T04:36:37;99738.13;;;9.59;100.00
27840;BME280;15207;42.182;24.308;2023-05-10T04:39:04;99739.81;;;9.47;100.00
27840;BME280;15207;42.182;24.308;2023-05-10T04:41:29;99730.31;;;9.56;100.00
27840;BME280;15207;42.182;24.308;2023-05-10T04:43:55;99724.00;;;9.70;100.00
27840;BME280;15207;42.182;24.308;2023-05-10T04:46:21;99727.88;;;9.79;100.00
27840;BME280;15207;42.182;24.308;2023-05-10T04:48:46;99724.53;;;9.62;100.00
27840;BME280;15207;42.182;24.308;2023-05-10T04:51:12;99723.47;;;9.65;100.00
27840;BME280;15207;42.182;24.308;2023-05-10T04:53:38;99730.13;;;9.72;100.00
27840;BME280;15207;42.182;24.308;2023-05-10T04:56:04;99722.22;;;9.84;100.00
27840;BME280;15207;42.182;24.308;2023-05-10T04:58:30;99730.44;;;9.81;100.00
27840;BME280;15207;42.182;24.308;2023-05-10T05:00:56;99730.22;;;9.84;100.00
27840;BME280;15207;42.182;24.308;2023-05-10T05:03:21;99723.38;;;9.79;100.00
27840;BME280;15207;42.182;24.308;2023-05-10T05:05:47;99731.72;;;9.75;100.00
27840;BME280;15207;42.182;24.308;2023-05-10T05:08:13;99733.00;;;9.69;100.00
27840;BME280;15207;42.182;24.308;2023-05-10T05:10:39;99735.25;;;9.75;100.00
27840;BME280;15207;42.182;24.308;2023-05-10T05:13:05;99736.28;;;9.60;100.00
27840;BME280;15207;42.182;24.308;2023-05-10T05:15:31;99729.66;;;9.52;100.00
27840;BME280;15207;42.182;24.308;2023-05-10T05:17:57;99729.88;;;9.62;100.00
27840;BME280;15207;42.182;24.308;2023-05-10T05:20:23;99737.72;;;9.65;100.00
27840;BME280;15207;42.182;24.308;2023-05-10T05:22:49;99736.28;;;9.60;100.00
27840;BME280;15207;42.182;24.308;2023-05-10T05:25:16;99735.13;;;9.64;100.00
27840;BME280;15207;42.182;24.308;2023-05-10T05:27:42;99733.94;;;9.55;100.00
27840;BME280;15207;42.182;24.308;2023-05-10T05:30:09;99734.16;;;9.65;100.00
27840;BME280;15207;42.182;24.308;2023-05-10T05:32:39;99734.94;;;9.80;100.00
27840;BME280;15207;42.182;24.308;2023-05-10T05:35:06;99734.41;;;9.75;100.00
27840;BME280;15207;42.182;24.308;2023-05-10T05:37:32;99739.97;;;9.98;100.00
27840;BME280;15207;42.182;24.308;2023-05-10T05:39:57;99746.72;;;9.90;100.00
27840;BME280;15207;42.182;24.308;2023-05-10T05:42:26;99745.84;;;9.77;100.00
27840;BME280;15207;42.182;24.308;2023-05-10T05:44:52;99742.88;;;9.82;100.00
27840;BME280;15207;42.182;24.308;2023-05-10T05:47:19;99747.53;;;9.78;100.00
27840;BME280;15207;42.182;24.308;2023-05-10T05:49:44;99759.63;;;9.71;100.00
27840;BME280;15207;42.182;24.308;2023-05-10T05:52:14;99753.97;;;9.88;100.00
27840;BME280;15207;42.182;24.308;2023-05-10T05:54:40;99759.75;;;9.95;100.00
27840;BME280;15207;42.182;24.308;2023-05-10T05:57:07;99753.13;;;10.01;100.00
27840;BME280;15207;42.182;24.308;2023-05-10T05:59:34;99752.06;;;10.03;100.00
27840;BME280;15207;42.182;24.308;2023-05-10T06:02:00;99751.75;;;9.95;100.00
27840;BME280;15207;42.182;24.308;2023-05-10T06:04:30;99755.59;;;9.91;100.00
27840;BME280;15207;42.182;24.308;2023-05-10T06:07:01;99754.09;;;9.87;100.00
27840;BME280;15207;42.182;24.308;2023-05-10T06:09:28;99757.63;;;9.87;100.00
27840;BME280;15207;42.182;24.308;2023-05-10T06:11:55;99750.56;;;9.86;100.00
27840;BME280;15207;42.182;24.308;2023-05-10T06:14:23;99757.72;;;9.86;100.00
27840;BME280;15207;42.182;24.308;2023-05-10T06:16:49;99761.06;;;9.89;100.00
27840;BME280;15207;42.182;24.308;2023-05-10T06:19:16;99763.50;;;9.79;100.00
27840;BME280;15207;42.182;24.308;2023-05-10T06:21:43;99761.69;;;9.93;100.00
27840;BME280;15207;42.182;24.308;2023-05-10T06:24:09;99760.19;;;10.02;100.00
27840;BME280;15207;42.182;24.308;2023-05-10T06:26:36;99763.19;;;9.84;100.00
27840;BME280;15207;42.182;24.308;2023-05-10T06:29:01;99768.84;;;9.92;100.00
27840;BME280;15207;42.182;24.308;2023-05-10T06:31:27;99778.06;;;10.01;100.00
27840;BME280;15207;42.182;24.308;2023-05-10T06:33:54;99775.50;;;10.00;100.00
27840;BME280;15207;42.182;24.308;2023-05-10T06:36:21;99774.34;;;10.30;100.00
27840;BME280;15207;42.182;24.308;2023-05-10T06:38:47;99771.84;;;10.40;99.87
27840;BME280;15207;42.182;24.308;2023-05-10T06:41:13;99775.50;;;10.39;100.00
27840;BME280;15207;42.182;24.308;2023-05-10T06:43:38;99769.91;;;10.29;98.95
27840;BME280;15207;42.182;24.308;2023-05-10T06:46:07;99774.34;;;10.17;98.78
27840;BME280;15207;42.182;24.308;2023-05-10T06:48:35;99766.31;;;10.30;100.00
27840;BME280;15207;42.182;24.308;2023-05-10T06:51:01;99756.25;;;10.21;98.01
27840;BME280;15207;42.182;24.308;2023-05-10T06:53:27;99761.81;;;10.43;99.20
27840;BME280;15207;42.182;24.308;2023-05-10T06:55:53;99765.00;;;10.36;99.32
27840;BME280;15207;42.182;24.308;2023-05-10T06:58:20;99769.63;;;10.34;100.00
27840;BME280;15207;42.182;24.308;2023-05-10T07:00:46;99752.28;;;10.39;99.39
27840;BME280;15207;42.182;24.308;2023-05-10T07:03:12;99754.28;;;10.49;99.61
27840;BME280;15207;42.182;24.308;2023-05-10T07:05:38;99756.28;;;10.71;99.75
27840;BME280;15207;42.182;24.308;2023-05-10T07:08:04;99757.50;;;10.67;96.57
27840;BME280;15207;42.182;24.308;2023-05-10T07:10:30;99765.13;;;10.60;95.74
27840;BME280;15207;42.182;24.308;2023-05-10T07:12:57;99763.38;;;10.59;96.92
27840;BME280;15207;42.182;24.308;2023-05-10T07:15:23;99765.75;;;10.64;96.13
27840;BME280;15207;42.182;24.308;2023-05-10T07:17:49;99765.81;;;10.75;97.28
27840;BME280;15207;42.182;24.308;2023-05-10T07:20:17;99760.13;;;10.80;97.66
27840;BME280;15207;42.182;24.308;2023-05-10T07:22:42;99770.50;;;10.84;94.01
27840;BME280;15207;42.182;24.308;2023-05-10T07:25:09;99764.41;;;10.82;96.07
27840;BME280;15207;42.182;24.308;2023-05-10T07:27:35;99771.78;;;10.79;92.68
27840;BME280;15207;42.182;24.308;2023-05-10T07:30:00;99768.59;;;10.74;94.21
27840;BME280;15207;42.182;24.308;2023-05-10T07:32:26;99769.34;;;10.76;95.05
27840;BME280;15207;42.182;24.308;2023-05-10T07:34:52;99767.41;;;10.78;92.90
27840;BME280;15207;42.182;24.308;2023-05-10T07:37:18;99773.19;;;10.84;92.20
27840;BME280;15207;42.182;24.308;2023-05-10T07:39:44;99779.41;;;10.85;93.49
27840;BME280;15207;42.182;24.308;2023-05-10T07:42:09;99764.06;;;10.87;92.88
27840;BME280;15207;42.182;24.308;2023-05-10T07:44:35;99780.63;;;11.05;93.53
27840;BME280;15207;42.182;24.308;2023-05-10T07:47:01;99773.78;;;11.26;93.96
27840;BME280;15207;42.182;24.308;2023-05-10T07:49:26;99787.09;;;11.27;92.84
27840;BME280;15207;42.182;24.308;2023-05-10T07:51:52;99785.72;;;11.21;91.32
27840;BME280;15207;42.182;24.308;2023-05-10T07:54:18;99785.88;;;11.07;89.98
27840;BME280;15207;42.182;24.308;2023-05-10T07:56:43;99783.41;;;11.04;90.80
27840;BME280;15207;42.182;24.308;2023-05-10T07:59:16;99781.13;;;11.10;91.58
27840;BME280;15207;42.182;24.308;2023-05-10T08:01:43;99785.34;;;11.02;90.23
27840;BME280;15207;42.182;24.308;2023-05-10T08:04:09;99783.13;;;10.95;90.70
27840;BME280;15207;42.182;24.308;2023-05-10T08:06:34;99788.66;;;11.05;91.70
27840;BME280;15207;42.182;24.308;2023-05-10T08:09:00;99783.28;;;11.05;90.88
27840;BME280;15207;42.182;24.308;2023-05-10T08:11:27;99782.22;;;11.08;91.79
27840;BME280;15207;42.182;24.308;2023-05-10T08:13:53;99785.59;;;11.23;92.02
27840;BME280;15207;42.182;24.308;2023-05-10T08:16:20;99777.97;;;11.30;89.81
27840;BME280;15207;42.182;24.308;2023-05-10T08:18:46;99781.09;;;11.48;91.59
27840;BME280;15207;42.182;24.308;2023-05-10T08:21:14;99773.47;;;11.42;88.53
27840;BME280;15207;42.182;24.308;2023-05-10T08:23:40;99785.69;;;11.46;87.94
27840;BME280;15207;42.182;24.308;2023-05-10T08:26:06;99780.38;;;11.57;87.78
27840;BME280;15207;42.182;24.308;2023-05-10T08:28:33;99779.56;;;11.68;87.23
27840;BME280;15207;42.182;24.308;2023-05-10T08:30:58;99779.56;;;11.68;86.71
27840;BME280;15207;42.182;24.308;2023-05-10T08:33:24;99785.38;;;11.62;88.23
27840;BME280;15207;42.182;24.308;2023-05-10T08:35:50;99779.66;;;11.67;86.48
27840;BME280;15207;42.182;24.308;2023-05-10T08:38:15;99783.34;;;11.77;87.50
27840;BME280;15207;42.182;24.308;2023-05-10T08:40:42;99793.16;;;11.89;86.44
27840;BME280;15207;42.182;24.308;2023-05-10T08:43:10;99784.34;;;11.76;83.52
27840;BME280;15207;42.182;24.308;2023-05-10T08:45:38;99783.84;;;11.82;83.99
27840;BME280;15207;42.182;24.308;2023-05-10T08:48:06;99782.41;;;11.78;83.26
27840;BME280;15207;42.182;24.308;2023-05-10T08:50:33;99776.44;;;11.86;87.81
27840;BME280;15207;42.182;24.308;2023-05-10T08:53:13;99782.41;;;11.78;84.12
27840;BME280;15207;42.182;24.308;2023-05-10T08:55:40;99781.66;;;11.76;85.80
27840;BME280;15207;42.182;24.308;2023-05-10T08:58:09;99774.09;;;11.81;84.12
27840;BME280;15207;42.182;24.308;2023-05-10T09:00:35;99781.44;;;11.90;85.50
27840;BME280;15207;42.182;24.308;2023-05-10T09:03:03;99767.41;;;11.87;83.53
27840;BME280;15207;42.182;24.308;2023-05-10T09:05:29;99781.81;;;11.97;84.11
27840;BME280;15207;42.182;24.308;2023-05-10T09:07:54;99773.69;;;12.10;84.78
27840;BME280;15207;42.182;24.308;2023-05-10T09:10:20;99779.53;;;12.04;82.84
27840;BME280;15207;42.182;24.308;2023-05-10T09:12:48;99770.97;;;11.99;84.02
27840;BME280;15207;42.182;24.308;2023-05-10T09:15:17;99775.41;;;12.11;83.17
27840;BME280;15207;42.182;24.308;2023-05-10T09:17:45;99766.84;;;12.06;82.42
27840;BME280;15207;42.182;24.308;2023-05-10T09:20:11;99765.59;;;11.99;84.37
27840;BME280;15207;42.182;24.308;2023-05-10T09:22:36;99761.53;;;12.18;83.98
27840;BME280;15207;42.182;24.308;2023-05-10T09:25:06;99772.75;;;12.23;85.32
27840;BME280;15207;42.182;24.308;2023-05-10T09:27:35;99766.16;;;12.38;83.20
27840;BME280;15207;42.182;24.308;2023-05-10T09:30:02;99765.31;;;12.38;82.65
27840;BME280;15207;42.182;24.308;2023-05-10T09:32:42;99757.25;;;12.38;83.01
27840;BME280;15207;42.182;24.308;2023-05-10T09:37:34;99751.28;;;12.34;80.02
27840;BME280;15207;42.182;24.308;2023-05-10T09:40:00;99750.28;;;12.35;79.62
27840;BME280;15207;42.182;24.308;2023-05-10T09:42:29;99749.19;;;12.15;81.60
27840;BME280;15207;42.182;24.308;2023-05-10T09:45:02;99750.03;;;12.15;81.77
27840;BME280;15207;42.182;24.308;2023-05-10T09:47:31;99739.56;;;12.12;82.35
27840;BME280;15207;42.182;24.308;2023-05-10T09:49:57;99741.63;;;12.32;82.91
27840;BME280;15207;42.182;24.308;2023-05-10T09:52:28;99736.75;;;12.25;81.71
27840;BME280;15207;42.182;24.308;2023-05-10T09:54:54;99736.97;;;12.22;82.40
27840;BME280;15207;42.182;24.308;2023-05-10T09:57:21;99740.75;;;12.31;81.77
27840;BME280;15207;42.182;24.308;2023-05-10T09:59:47;99747.94;;;12.53;82.68
27840;BME280;15207;42.182;24.308;2023-05-10T10:02:13;99736.84;;;12.58;80.24
27840;BME280;15207;42.182;24.308;2023-05-10T10:04:42;99743.78;;;12.72;80.06
27840;BME280;15207;42.182;24.308;2023-05-10T10:07:08;99746.00;;;12.67;77.63
27840;BME280;15207;42.182;24.308;2023-05-10T10:09:34;99744.16;;;12.56;78.44
27840;BME280;15207;42.182;24.308;2023-05-10T10:12:01;99732.59;;;12.33;79.27
27840;BME280;15207;42.182;24.308;2023-05-10T10:14:28;99731.09;;;12.40;80.46
27840;BME280;15207;42.182;24.308;2023-05-10T10:16:54;99737.09;;;12.43;78.80
27840;BME280;15207;42.182;24.308;2023-05-10T10:19:19;99733.94;;;12.38;79.02
27840;BME280;15207;42.182;24.308;2023-05-10T10:21:46;99734.03;;;12.48;80.37
27840;BME280;15207;42.182;24.308;2023-05-10T10:24:12;99737.22;;;12.42;77.57
27840;BME280;15207;42.182;24.308;2023-05-10T10:26:38;99737.09;;;12.55;78.32
27840;BME280;15207;42.182;24.308;2023-05-10T10:34:28;99733.84;;;12.95;78.07
27840;BME280;15207;42.182;24.308;2023-05-10T10:36:56;99726.59;;;13.07;75.83
27840;BME280;15207;42.182;24.308;2023-05-10T10:39:23;99728.06;;;13.12;75.64
27840;BME280;15207;42.182;24.308;2023-05-10T10:55:00;99709.34;;;13.10;72.04
27840;BME280;15207;42.182;24.308;2023-05-10T10:57:27;99723.72;;;13.20;70.84
27840;BME280;15207;42.182;24.308;2023-05-10T11:07:55;99719.38;;;13.41;71.67
27840;BME280;15207;42.182;24.308;2023-05-10T11:10:21;99721.16;;;13.19;70.89
27840;BME280;15207;42.182;24.308;2023-05-10T11:13:04;99720.81;;;13.12;71.18
27840;BME280;15207;42.182;24.308;2023-05-10T11:15:35;99720.09;;;13.10;70.50
27840;BME280;15207;42.182;24.308;2023-05-10T11:18:27;99716.69;;;13.41;72.53
27840;BME280;15207;42.182;24.308;2023-05-10T11:21:01;99719.63;;;13.38;70.48
27840;BME280;15207;42.182;24.308;2023-05-10T11:26:13;99717.94;;;13.36;72.18
27840;BME280;15207;42.182;24.308;2023-05-10T11:28:45;99708.88;;;13.38;70.79
27840;BME280;15207;42.182;24.308;2023-05-10T11:31:14;99700.41;;;13.42;71.70
27840;BME280;15207;42.182;24.308;2023-05-10T11:33:47;99702.41;;;13.61;71.28
27840;BME280;15207;42.182;24.308;2023-05-10T11:36:21;99697.09;;;13.71;71.07
27840;BME280;15207;42.182;24.308;2023-05-10T11:38:48;99692.16;;;13.77;70.63
27840;BME280;15207;42.182;24.308;2023-05-10T11:41:16;99696.53;;;13.99;70.47
27840;BME280;15207;42.182;24.308;2023-05-10T11:43:46;99695.31;;;14.13;69.83
27840;BME280;15207;42.182;24.308;2023-05-10T11:46:13;99684.78;;;14.31;68.06
27840;BME280;15207;42.182;24.308;2023-05-10T11:48:40;99686.34;;;14.34;67.10
27840;BME280;15207;42.182;24.308;2023-05-10T11:51:09;99700.50;;;14.36;66.44
27840;BME280;15207;42.182;24.308;2023-05-10T11:53:35;99695.09;;;13.95;65.10
27840;BME280;15207;42.182;24.308;2023-05-10T11:56:05;99700.97;;;14.10;68.98
27840;BME280;15207;42.182;24.308;2023-05-10T11:58:33;99681.91;;;14.23;67.53
27840;BME280;15207;42.182;24.308;2023-05-10T12:00:59;99681.19;;;14.21;68.90
27840;BME280;15207;42.182;24.308;2023-05-10T12:03:25;99678.53;;;14.31;67.60
27840;BME280;15207;42.182;24.308;2023-05-10T12:05:51;99684.53;;;14.44;69.11
27840;BME280;15207;42.182;24.308;2023-05-10T12:08:27;99670.75;;;14.47;66.87
27840;BME280;15207;42.182;24.308;2023-05-10T12:11:07;99672.75;;;14.55;68.75
27840;BME280;15207;42.182;24.308;2023-05-10T12:13:37;99668.09;;;14.57;70.65
27840;BME280;15207;42.182;24.308;2023-05-10T12:16:13;99677.63;;;14.61;76.73
27840;BME280;15207;42.182;24.308;2023-05-10T12:18:40;99668.81;;;14.59;78.67
27840;BME280;15207;42.182;24.308;2023-05-10T12:21:06;99672.22;;;14.61;79.03
27840;BME280;15207;42.182;24.308;2023-05-10T12:23:32;99667.13;;;14.58;78.45
27840;BME280;15207;42.182;24.308;2023-05-10T12:26:04;99667.38;;;14.55;80.15
27840;BME280;15207;42.182;24.308;2023-05-10T12:28:32;99657.19;;;14.59;79.16
27840;BME280;15207;42.182;24.308;2023-05-10T12:31:01;99664.97;;;14.52;79.73
27840;BME280;15207;42.182;24.308;2023-05-10T12:33:35;99662.03;;;14.65;79.72
27840;BME280;15207;42.182;24.308;2023-05-10T12:36:02;99661.28;;;14.63;78.91
27840;BME280;15207;42.182;24.308;2023-05-10T12:38:29;99648.25;;;14.68;78.97
27840;BME280;15207;42.182;24.308;2023-05-10T12:41:01;99643.16;;;14.75;78.62
27840;BME280;15207;42.182;24.308;2023-05-10T12:43:29;99641.22;;;14.77;77.55
27840;BME280;15207;42.182;24.308;2023-05-10T12:45:56;99643.91;;;14.87;77.76
27840;BME280;15207;42.182;24.308;2023-05-10T12:48:22;99643.06;;;14.86;77.70
27840;BME280;15207;42.182;24.308;2023-05-10T12:50:47;99643.50;;;14.91;76.38
27840;BME280;15207;42.182;24.308;2023-05-10T12:53:14;99624.91;;;14.88;77.32
27840;BME280;15207;42.182;24.308;2023-05-10T12:55:43;99633.13;;;14.87;75.99
27840;BME280;15207;42.182;24.308;2023-05-10T12:58:09;99632.44;;;14.85;77.22
27840;BME280;15207;42.182;24.308;2023-05-10T13:00:35;99634.81;;;14.88;78.23
27840;BME280;15207;42.182;24.308;2023-05-10T13:03:01;99631.28;;;14.87;75.95
27840;BME280;15207;42.182;24.308;2023-05-10T13:05:26;99633.13;;;14.87;75.75
27840;BME280;15207;42.182;24.308;2023-05-10T13:07:54;99623.03;;;14.79;74.50
27840;BME280;15207;42.182;24.308;2023-05-10T13:10:20;99621.78;;;14.83;75.54
27840;BME280;15207;42.182;24.308;2023-05-10T13:12:47;99619.50;;;14.78;75.95
27840;BME280;15207;42.182;24.308;2023-05-10T13:15:13;99616.09;;;14.76;74.53
27840;BME280;15207;42.182;24.308;2023-05-10T13:17:39;99615.50;;;14.73;73.68
27840;BME280;15207;42.182;24.308;2023-05-10T13:20:06;99621.28;;;14.68;75.85
27840;BME280;15207;42.182;24.308;2023-05-10T13:22:31;99613.06;;;14.70;75.85
27840;BME280;15207;42.182;24.308;2023-05-10T13:24:57;99607.81;;;14.68;75.87
27840;BME280;15207;42.182;24.308;2023-05-10T13:27:22;99609.53;;;14.69;74.25
27840;BME280;15207;42.182;24.308;2023-05-10T13:29:48;99598.47;;;14.62;75.91
27840;BME280;15207;42.182;24.308;2023-05-10T13:32:13;99601.03;;;14.64;74.72
27840;BME280;15207;42.182;24.308;2023-05-10T13:34:39;99612.25;;;14.69;75.08
27840;BME280;15207;42.182;24.308;2023-05-10T13:37:05;99604.28;;;14.67;75.62
27840;BME280;15207;42.182;24.308;2023-05-10T13:39:31;99604.84;;;14.71;74.47
27840;BME280;15207;42.182;24.308;2023-05-10T13:41:59;99605.13;;;14.68;74.94
27840;BME280;15207;42.182;24.308;2023-05-10T13:44:25;99598.16;;;14.65;73.19
27840;BME280;15207;42.182;24.308;2023-05-10T13:46:51;99600.47;;;14.70;75.73
27840;BME280;15207;42.182;24.308;2023-05-10T13:49:16;99597.91;;;14.68;74.89
27840;BME280;15207;42.182;24.308;2023-05-10T13:51:43;99593.94;;;14.73;75.22
27840;BME280;15207;42.182;24.308;2023-05-10T13:54:08;99587.81;;;14.71;75.08